Gaz Palmyra — 3FCO4 — position and weather

sailwx.info

Track history (hours):
 
Tides and Currents Weather Stations Pressure Air Temp Water Temp Dewpoint Dewpoint Depression Visibility Wind Speed Wind Dir Waves Ship Positions

Gaz Palmyra

Last reported at 2016-Sep-22 04:33 UTC. Time now 2016-Sep-27 03:35 UTC.
Position N 36°27' E 000°26'.

Length 137 m; draft 5.7 m.

Type: Ship (hazmat cat C). MMSI: 353247000.

Date/timePositionNaut miles runAvg speedWind from/ knotsBaromVisibWave heightAir tempDewpointWater temp
2016-Sep-22 04:33N 36°27' E 000°26'10 9.9
2016-Sep-22 03:32N 36°33' E 000°36'28 9.5
2016-Sep-22 00:33N 36°47' E 001°07'9 9.3
2016-Sep-21 23:33N 36°49' E 001°18'11 9.5
2016-Sep-21 22:24N 36°53' E 001°31'27 9.5
2016-Sep-21 19:32N 36°58' E 002°04'  
2016-Sep-13 02:24N 36°05' W 000°17'10 1.5
2016-Sep-12 19:33N 35°57' W 000°09'4 1.9
2016-Sep-12 17:33N 35°60' W 000°07'6 1.9
2016-Sep-12 14:27N 36°05' W 000°03'7 8.2
2016-Sep-12 13:33N 35°59' W 000°08'4 4.0
2016-Sep-12 12:28N 35°55' W 000°11'1 1.4
2016-Sep-12 11:29N 35°56' W 000°10'1 1.2
2016-Sep-12 10:32N 35°57' W 000°10'3 0.8
2016-Sep-12 06:30N 36°00' W 000°09'  
Track history (hours):
 
Tides and Currents Weather Stations Pressure Air Temp Water Temp Dewpoint Dewpoint Depression Visibility Wind Speed Wind Dir Waves Ship Positions

Gaz Palmyra

Last reported at 2016-Sep-22 04:33 UTC. Time now 2016-Sep-27 03:35 UTC.
Position N 36°27' E 000°26'.

Length 137 m; draft 5.7 m.

Type: Ship (hazmat cat C). MMSI: 353247000.

Date/timePositionNaut miles runAvg speedWind from/ knotsBaromVisibWave heightAir tempDewpointWater temp
2016-Sep-22 04:33N 36°27' E 000°26'10 9.9
2016-Sep-22 03:32N 36°33' E 000°36'28 9.5
2016-Sep-22 00:33N 36°47' E 001°07'9 9.3
2016-Sep-21 23:33N 36°49' E 001°18'11 9.5
2016-Sep-21 22:24N 36°53' E 001°31'27 9.5
2016-Sep-21 19:32N 36°58' E 002°04'  
2016-Sep-13 02:24N 36°05' W 000°17'10 1.5
2016-Sep-12 19:33N 35°57' W 000°09'4 1.9
2016-Sep-12 17:33N 35°60' W 000°07'6 1.9
2016-Sep-12 14:27N 36°05' W 000°03'7 8.2
2016-Sep-12 13:33N 35°59' W 000°08'4 4.0
2016-Sep-12 12:28N 35°55' W 000°11'1 1.4
2016-Sep-12 11:29N 35°56' W 000°10'1 1.2
2016-Sep-12 10:32N 35°57' W 000°10'3 0.8
2016-Sep-12 06:30N 36°00' W 000°09'  

Dump ship's entire track history